sensor_id;sensor_type;location;lat;lon;timestamp;pressure;altitude;pressure_sealevel;temperature;humidity
34081;BME280;20358;50.272;19.026;2023-07-13T00:01:53;97881.44;;;18.44;68.63
34081;BME280;20358;50.272;19.026;2023-07-13T00:05:04;97873.41;;;18.44;68.80
34081;BME280;20358;50.272;19.026;2023-07-13T00:08:12;97881.44;;;18.44;67.83
34081;BME280;20358;50.272;19.026;2023-07-13T00:11:27;97900.56;;;18.25;67.40
34081;BME280;20358;50.272;19.026;2023-07-13T00:14:35;97904.63;;;18.13;67.34
34081;BME280;20358;50.272;19.026;2023-07-13T00:17:44;97911.69;;;17.98;68.27
34081;BME280;20358;50.272;19.026;2023-07-13T00:20:55;97920.06;;;17.95;68.76
34081;BME280;20358;50.272;19.026;2023-07-13T00:24:11;97915.38;;;17.97;68.84
34081;BME280;20358;50.272;19.026;2023-07-13T00:27:26;97913.00;;;18.02;68.71
34081;BME280;20358;50.272;19.026;2023-07-13T00:30:35;97917.34;;;18.11;68.01
34081;BME280;20358;50.272;19.026;2023-07-13T00:33:44;97906.78;;;18.17;67.56
34081;BME280;20358;50.272;19.026;2023-07-13T00:36:55;97912.63;;;18.21;66.26
34081;BME280;20358;50.272;19.026;2023-07-13T00:40:05;97911.91;;;18.27;67.42
34081;BME280;20358;50.272;19.026;2023-07-13T00:43:15;97897.66;;;18.34;67.36
34081;BME280;20358;50.272;19.026;2023-07-13T00:46:32;97889.81;;;18.41;68.18
34081;BME280;20358;50.272;19.026;2023-07-13T00:49:40;97881.44;;;18.44;68.24
34081;BME280;20358;50.272;19.026;2023-07-13T00:52:54;97865.41;;;18.44;67.47
34081;BME280;20358;50.272;19.026;2023-07-13T00:56:03;97884.75;;;18.46;66.93
34081;BME280;20358;50.272;19.026;2023-07-13T00:59:13;97878.56;;;18.46;65.33
34081;BME280;20358;50.272;19.026;2023-07-13T01:02:24;97858.03;;;18.46;65.35
34081;BME280;20358;50.272;19.026;2023-07-13T01:05:34;97869.06;;;18.43;64.72
34081;BME280;20358;50.272;19.026;2023-07-13T01:08:45;97876.75;;;18.46;65.52
34081;BME280;20358;50.272;19.026;2023-07-13T01:11:54;97861.22;;;18.50;66.07
34081;BME280;20358;50.272;19.026;2023-07-13T01:15:04;97861.03;;;18.51;66.77
34081;BME280;20358;50.272;19.026;2023-07-13T01:18:34;97851.34;;;18.50;66.76
34081;BME280;20358;50.272;19.026;2023-07-13T01:21:50;97857.72;;;18.49;66.69
34081;BME280;20358;50.272;19.026;2023-07-13T01:24:58;97856.53;;;18.52;65.95
34081;BME280;20358;50.272;19.026;2023-07-13T01:28:08;97861.88;;;18.52;66.83
34081;BME280;20358;50.272;19.026;2023-07-13T01:31:17;97878.38;;;18.55;68.39
34081;BME280;20358;50.272;19.026;2023-07-13T01:34:24;97883.09;;;18.45;69.22
34081;BME280;20358;50.272;19.026;2023-07-13T01:37:35;97890.69;;;18.33;69.62
34081;BME280;20358;50.272;19.026;2023-07-13T01:40:42;97887.50;;;18.30;70.04
34081;BME280;20358;50.272;19.026;2023-07-13T01:43:52;97880.81;;;18.34;70.04
34081;BME280;20358;50.272;19.026;2023-07-13T01:47:02;97864.06;;;18.40;69.61
34081;BME280;20358;50.272;19.026;2023-07-13T01:50:11;97873.06;;;18.47;68.69
34081;BME280;20358;50.272;19.026;2023-07-13T01:53:21;97874.59;;;18.50;69.64
34081;BME280;20358;50.272;19.026;2023-07-13T01:56:29;97871.72;;;18.51;68.72
34081;BME280;20358;50.272;19.026;2023-07-13T01:59:36;97872.72;;;18.42;69.27
34081;BME280;20358;50.272;19.026;2023-07-13T02:02:43;97853.94;;;18.27;68.68
34081;BME280;20358;50.272;19.026;2023-07-13T02:05:51;97857.81;;;18.25;69.67
34081;BME280;20358;50.272;19.026;2023-07-13T02:09:01;97855.97;;;18.25;69.56
34081;BME280;20358;50.272;19.026;2023-07-13T02:12:10;97843.59;;;18.24;70.13
34081;BME280;20358;50.272;19.026;2023-07-13T02:15:19;97838.59;;;18.21;69.05
34081;BME280;20358;50.272;19.026;2023-07-13T02:18:28;97841.13;;;18.23;69.09
34081;BME280;20358;50.272;19.026;2023-07-13T02:21:38;97833.75;;;18.25;68.33
34081;BME280;20358;50.272;19.026;2023-07-13T02:24:50;97815.03;;;18.25;68.21
34081;BME280;20358;50.272;19.026;2023-07-13T02:27:59;97811.72;;;18.23;67.26
34081;BME280;20358;50.272;19.026;2023-07-13T02:31:08;97801.19;;;18.21;67.75
34081;BME280;20358;50.272;19.026;2023-07-13T02:34:22;97797.50;;;18.22;67.84
34081;BME280;20358;50.272;19.026;2023-07-13T02:37:33;97799.66;;;18.27;67.93
34081;BME280;20358;50.272;19.026;2023-07-13T02:40:46;97789.31;;;18.24;68.22
34081;BME280;20358;50.272;19.026;2023-07-13T02:43:57;97798.34;;;18.23;67.85
34081;BME280;20358;50.272;19.026;2023-07-13T02:47:08;97793.66;;;18.25;67.80
34081;BME280;20358;50.272;19.026;2023-07-13T02:50:20;97802.03;;;18.22;68.17
34081;BME280;20358;50.272;19.026;2023-07-13T02:53:31;97792.69;;;18.18;67.78
34081;BME280;20358;50.272;19.026;2023-07-13T02:56:42;97783.34;;;18.14;67.02
34081;BME280;20358;50.272;19.026;2023-07-13T02:59:50;97780.03;;;18.12;67.84
34081;BME280;20358;50.272;19.026;2023-07-13T03:02:59;97806.75;;;18.12;67.25
34081;BME280;20358;50.272;19.026;2023-07-13T03:06:07;97802.59;;;18.09;68.08
34081;BME280;20358;50.272;19.026;2023-07-13T03:09:23;97810.94;;;18.06;66.72
34081;BME280;20358;50.272;19.026;2023-07-13T03:12:36;97840.22;;;18.00;66.98
34081;BME280;20358;50.272;19.026;2023-07-13T03:15:49;97835.56;;;17.94;67.38
34081;BME280;20358;50.272;19.026;2023-07-13T03:18:58;97854.59;;;17.91;67.47
34081;BME280;20358;50.272;19.026;2023-07-13T03:22:06;97868.28;;;17.88;67.46
34081;BME280;20358;50.272;19.026;2023-07-13T03:25:16;97888.34;;;17.84;67.42
34081;BME280;20358;50.272;19.026;2023-07-13T03:28:28;97896.88;;;17.79;66.96
34081;BME280;20358;50.272;19.026;2023-07-13T03:31:36;97905.03;;;17.69;67.42
34081;BME280;20358;50.272;19.026;2023-07-13T03:34:44;97905.41;;;17.58;67.44
34081;BME280;20358;50.272;19.026;2023-07-13T03:37:52;97887.91;;;17.48;68.09
34081;BME280;20358;50.272;19.026;2023-07-13T03:41:04;97893.75;;;17.35;68.51
34081;BME280;20358;50.272;19.026;2023-07-13T03:44:15;97886.59;;;17.28;68.83
34081;BME280;20358;50.272;19.026;2023-07-13T03:47:28;97892.09;;;17.26;68.97
34081;BME280;20358;50.272;19.026;2023-07-13T03:50:40;97894.75;;;17.26;68.67
34081;BME280;20358;50.272;19.026;2023-07-13T03:53:48;97888.09;;;17.30;69.22
34081;BME280;20358;50.272;19.026;2023-07-13T03:56:57;97900.28;;;17.41;68.78
34081;BME280;20358;50.272;19.026;2023-07-13T04:00:11;97906.75;;;17.46;68.70
34081;BME280;20358;50.272;19.026;2023-07-13T04:03:20;97912.59;;;17.50;68.90
34081;BME280;20358;50.272;19.026;2023-07-13T04:06:30;97893.91;;;17.50;68.95
34081;BME280;20358;50.272;19.026;2023-07-13T04:09:38;97909.59;;;17.61;68.33
34081;BME280;20358;50.272;19.026;2023-07-13T04:12:46;97911.22;;;17.70;68.32
34081;BME280;20358;50.272;19.026;2023-07-13T04:15:57;97920.09;;;17.79;67.55
34081;BME280;20358;50.272;19.026;2023-07-13T04:19:04;97920.06;;;17.87;68.15
34081;BME280;20358;50.272;19.026;2023-07-13T04:22:11;97919.03;;;17.96;67.57
34081;BME280;20358;50.272;19.026;2023-07-13T04:25:18;97915.34;;;18.05;67.34
34081;BME280;20358;50.272;19.026;2023-07-13T04:28:27;97911.28;;;18.17;66.46
34081;BME280;20358;50.272;19.026;2023-07-13T04:31:37;97920.59;;;18.29;66.73
34081;BME280;20358;50.272;19.026;2023-07-13T04:34:44;97916.34;;;18.43;66.37
34081;BME280;20358;50.272;19.026;2023-07-13T04:37:56;97901.94;;;18.60;65.72
34081;BME280;20358;50.272;19.026;2023-07-13T04:41:07;97889.94;;;18.78;65.87
34081;BME280;20358;50.272;19.026;2023-07-13T04:44:14;97890.16;;;18.91;65.57
34081;BME280;20358;50.272;19.026;2023-07-13T04:47:25;97883.72;;;19.09;65.55
34081;BME280;20358;50.272;19.026;2023-07-13T04:50:32;97896.31;;;19.23;65.35
34081;BME280;20358;50.272;19.026;2023-07-13T04:53:39;97878.53;;;19.30;65.29
34081;BME280;20358;50.272;19.026;2023-07-13T04:56:47;97886.88;;;19.35;64.63
34081;BME280;20358;50.272;19.026;2023-07-13T04:59:56;97889.25;;;19.30;64.60
34081;BME280;20358;50.272;19.026;2023-07-13T05:03:16;97886.28;;;19.25;64.59
34081;BME280;20358;50.272;19.026;2023-07-13T05:06:25;97877.56;;;19.23;64.50
34081;BME280;20358;50.272;19.026;2023-07-13T05:09:33;97873.06;;;19.23;64.42
34081;BME280;20358;50.272;19.026;2023-07-13T05:12:41;97868.53;;;19.24;64.95
34081;BME280;20358;50.272;19.026;2023-07-13T05:15:56;97885.59;;;19.23;64.84
34081;BME280;20358;50.272;19.026;2023-07-13T05:19:09;97882.84;;;19.16;64.05
34081;BME280;20358;50.272;19.026;2023-07-13T05:22:16;97885.19;;;19.11;65.26
34081;BME280;20358;50.272;19.026;2023-07-13T05:25:25;97887.66;;;19.13;66.61
34081;BME280;20358;50.272;19.026;2023-07-13T05:28:32;97895.06;;;19.11;65.91
34081;BME280;20358;50.272;19.026;2023-07-13T05:31:41;97885.84;;;19.13;66.55
34081;BME280;20358;50.272;19.026;2023-07-13T05:34:51;97895.31;;;19.24;66.14
34081;BME280;20358;50.272;19.026;2023-07-13T05:38:12;97888.88;;;19.33;65.51
34081;BME280;20358;50.272;19.026;2023-07-13T05:41:20;97886.13;;;19.41;64.39
34081;BME280;20358;50.272;19.026;2023-07-13T05:44:28;97880.53;;;19.50;65.48
34081;BME280;20358;50.272;19.026;2023-07-13T05:47:37;97882.38;;;19.65;64.84
34081;BME280;20358;50.272;19.026;2023-07-13T05:50:48;97878.06;;;19.78;64.58
34081;BME280;20358;50.272;19.026;2023-07-13T05:53:56;97870.88;;;19.93;63.19
34081;BME280;20358;50.272;19.026;2023-07-13T05:57:06;97863.31;;;19.97;63.13
34081;BME280;20358;50.272;19.026;2023-07-13T06:00:14;97867.75;;;20.04;63.14
34081;BME280;20358;50.272;19.026;2023-07-13T06:03:24;97851.72;;;20.11;63.49
34081;BME280;20358;50.272;19.026;2023-07-13T06:06:36;97867.03;;;20.32;63.73
34081;BME280;20358;50.272;19.026;2023-07-13T06:09:44;97871.28;;;20.41;62.01
34081;BME280;20358;50.272;19.026;2023-07-13T06:12:52;97878.44;;;20.34;61.82
34081;BME280;20358;50.272;19.026;2023-07-13T06:16:02;97861.41;;;20.27;62.78
34081;BME280;20358;50.272;19.026;2023-07-13T06:19:11;97866.56;;;20.43;61.30
34081;BME280;20358;50.272;19.026;2023-07-13T06:22:22;97869.44;;;20.56;59.44
34081;BME280;20358;50.272;19.026;2023-07-13T06:25:33;97878.47;;;20.69;60.24
34081;BME280;20358;50.272;19.026;2023-07-13T06:28:47;97869.69;;;20.61;60.23
34081;BME280;20358;50.272;19.026;2023-07-13T06:31:54;97865.75;;;20.78;60.21
34081;BME280;20358;50.272;19.026;2023-07-13T06:35:02;97869.34;;;20.85;60.46
34081;BME280;20358;50.272;19.026;2023-07-13T06:38:19;97868.44;;;20.99;60.08
34081;BME280;20358;50.272;19.026;2023-07-13T06:41:28;97881.47;;;21.17;60.42
34081;BME280;20358;50.272;19.026;2023-07-13T06:44:39;97877.81;;;21.24;59.79
34081;BME280;20358;50.272;19.026;2023-07-13T06:47:46;97882.25;;;21.38;59.81
34081;BME280;20358;50.272;19.026;2023-07-13T06:50:55;97871.66;;;21.58;59.25
34081;BME280;20358;50.272;19.026;2023-07-13T06:54:08;97875.53;;;21.77;58.30
34081;BME280;20358;50.272;19.026;2023-07-13T06:57:15;97880.59;;;21.93;57.21
34081;BME280;20358;50.272;19.026;2023-07-13T07:00:25;97888.75;;;22.06;56.33
34081;BME280;20358;50.272;19.026;2023-07-13T07:03:32;97873.66;;;22.12;56.45
34081;BME280;20358;50.272;19.026;2023-07-13T07:06:42;97902.59;;;22.37;56.34
34081;BME280;20358;50.272;19.026;2023-07-13T07:09:55;97900.56;;;22.52;55.06
34081;BME280;20358;50.272;19.026;2023-07-13T07:13:04;97905.59;;;22.62;55.41
34081;BME280;20358;50.272;19.026;2023-07-13T07:16:13;97913.47;;;22.64;54.57
34081;BME280;20358;50.272;19.026;2023-07-13T07:19:21;97925.91;;;22.65;54.85
34081;BME280;20358;50.272;19.026;2023-07-13T07:22:28;97928.16;;;22.61;54.53
34081;BME280;20358;50.272;19.026;2023-07-13T07:25:38;97928.31;;;22.46;54.43
34081;BME280;20358;50.272;19.026;2023-07-13T07:28:45;97929.44;;;22.31;54.72
34081;BME280;20358;50.272;19.026;2023-07-13T07:32:13;97939.69;;;22.14;55.58
34081;BME280;20358;50.272;19.026;2023-07-13T07:35:40;97932.81;;;22.05;56.14
34081;BME280;20358;50.272;19.026;2023-07-13T07:39:08;97954.84;;;21.94;55.93
34081;BME280;20358;50.272;19.026;2023-07-13T07:42:18;97949.25;;;21.89;56.29
34081;BME280;20358;50.272;19.026;2023-07-13T07:45:26;97953.16;;;21.86;56.35
34081;BME280;20358;50.272;19.026;2023-07-13T07:48:33;97947.31;;;21.83;56.19
34081;BME280;20358;50.272;19.026;2023-07-13T07:51:43;97944.78;;;21.75;56.80
34081;BME280;20358;50.272;19.026;2023-07-13T07:54:50;97939.78;;;21.72;57.07
34081;BME280;20358;50.272;19.026;2023-07-13T07:58:05;97938.63;;;21.81;57.12
34081;BME280;20358;50.272;19.026;2023-07-13T08:01:32;97939.22;;;22.11;55.23
34081;BME280;20358;50.272;19.026;2023-07-13T08:04:43;97933.94;;;22.24;54.55
34081;BME280;20358;50.272;19.026;2023-07-13T08:07:56;97926.50;;;22.26;54.54
34081;BME280;20358;50.272;19.026;2023-07-13T08:11:05;97915.53;;;22.27;54.74
34081;BME280;20358;50.272;19.026;2023-07-13T08:14:20;97921.94;;;22.26;54.95
34081;BME280;20358;50.272;19.026;2023-07-13T08:17:47;97915.81;;;22.32;55.34
34081;BME280;20358;50.272;19.026;2023-07-13T08:20:55;97922.38;;;22.30;55.10
34081;BME280;20358;50.272;19.026;2023-07-13T08:24:03;97921.75;;;22.28;54.89
34081;BME280;20358;50.272;19.026;2023-07-13T08:27:12;97913.56;;;22.08;55.66
34081;BME280;20358;50.272;19.026;2023-07-13T08:30:23;97906.88;;;21.97;55.48
34081;BME280;20358;50.272;19.026;2023-07-13T08:33:30;97908.91;;;21.89;56.20
34081;BME280;20358;50.272;19.026;2023-07-13T08:36:39;97918.78;;;21.82;55.10
34081;BME280;20358;50.272;19.026;2023-07-13T08:39:47;97911.38;;;21.84;54.53
34081;BME280;20358;50.272;19.026;2023-07-13T08:42:58;97922.97;;;21.91;54.28
34081;BME280;20358;50.272;19.026;2023-07-13T08:46:13;97915.53;;;21.93;53.97
34081;BME280;20358;50.272;19.026;2023-07-13T08:49:27;97918.84;;;21.95;52.32
34081;BME280;20358;50.272;19.026;2023-07-13T08:52:41;97913.53;;;22.02;52.39
34081;BME280;20358;50.272;19.026;2023-07-13T08:55:58;97916.91;;;22.10;52.38
34081;BME280;20358;50.272;19.026;2023-07-13T08:59:14;97918.94;;;22.08;52.71
34081;BME280;20358;50.272;19.026;2023-07-13T09:02:42;97916.91;;;22.10;54.00
34081;BME280;20358;50.272;19.026;2023-07-13T09:05:59;97927.25;;;22.13;55.22
34081;BME280;20358;50.272;19.026;2023-07-13T09:09:19;97926.22;;;22.14;55.16
34081;BME280;20358;50.272;19.026;2023-07-13T09:12:45;97936.00;;;22.22;53.07
34081;BME280;20358;50.272;19.026;2023-07-13T09:16:03;97929.16;;;22.19;52.49
34081;BME280;20358;50.272;19.026;2023-07-13T09:19:22;97928.91;;;22.14;53.47
34081;BME280;20358;50.272;19.026;2023-07-13T09:22:39;97924.75;;;22.12;53.29
34081;BME280;20358;50.272;19.026;2023-07-13T09:25:51;97930.50;;;22.02;53.83
34081;BME280;20358;50.272;19.026;2023-07-13T09:29:14;97930.91;;;21.99;54.68
34081;BME280;20358;50.272;19.026;2023-07-13T09:32:35;97938.50;;;21.95;54.96
34081;BME280;20358;50.272;19.026;2023-07-13T09:35:52;97988.81;;;21.31;56.43
34081;BME280;20358;50.272;19.026;2023-07-13T09:39:05;97957.91;;;20.85;57.10
34081;BME280;20358;50.272;19.026;2023-07-13T09:42:25;97958.59;;;20.29;58.14
34081;BME280;20358;50.272;19.026;2023-07-13T09:45:36;97969.66;;;19.96;58.72
34081;BME280;20358;50.272;19.026;2023-07-13T09:48:45;97977.38;;;19.54;59.34
34081;BME280;20358;50.272;19.026;2023-07-13T09:52:03;97987.53;;;19.21;59.59
34081;BME280;20358;50.272;19.026;2023-07-13T09:55:29;97980.44;;;18.97;60.00
34081;BME280;20358;50.272;19.026;2023-07-13T09:58:39;98001.81;;;18.75;59.65
34081;BME280;20358;50.272;19.026;2023-07-13T10:01:49;98007.75;;;18.46;60.30
34081;BME280;20358;50.272;19.026;2023-07-13T10:04:58;98030.25;;;18.05;61.17
34081;BME280;20358;50.272;19.026;2023-07-13T10:08:23;98042.22;;;17.44;63.00
34081;BME280;20358;50.272;19.026;2023-07-13T10:11:35;98048.38;;;16.87;64.86
34081;BME280;20358;50.272;19.026;2023-07-13T10:14:48;98063.19;;;16.22;67.52
34081;BME280;20358;50.272;19.026;2023-07-13T10:17:58;98057.44;;;15.65;69.25
34081;BME280;20358;50.272;19.026;2023-07-13T10:21:17;98064.63;;;15.20;70.92
34081;BME280;20358;50.272;19.026;2023-07-13T10:24:33;98067.38;;;14.83;73.04
34081;BME280;20358;50.272;19.026;2023-07-13T10:27:46;98095.75;;;14.46;74.32
34081;BME280;20358;50.272;19.026;2023-07-13T10:30:59;98081.59;;;14.08;78.88
34081;BME280;20358;50.272;19.026;2023-07-13T10:34:11;98116.38;;;13.77;78.87
34081;BME280;20358;50.272;19.026;2023-07-13T10:37:24;98078.41;;;13.67;79.40
34081;BME280;20358;50.272;19.026;2023-07-13T10:40:43;98092.50;;;13.67;80.59
34081;BME280;20358;50.272;19.026;2023-07-13T10:43:57;98066.41;;;13.72;79.69
34081;BME280;20358;50.272;19.026;2023-07-13T10:47:14;98080.75;;;13.79;80.19
34081;BME280;20358;50.272;19.026;2023-07-13T10:50:26;98061.31;;;13.88;79.17
34081;BME280;20358;50.272;19.026;2023-07-13T10:53:40;98072.78;;;13.98;79.57
34081;BME280;20358;50.272;19.026;2023-07-13T10:56:54;98069.28;;;14.07;79.61
34081;BME280;20358;50.272;19.026;2023-07-13T11:00:24;98082.69;;;14.16;78.45
34081;BME280;20358;50.272;19.026;2023-07-13T11:03:33;98079.88;;;14.27;77.92
34081;BME280;20358;50.272;19.026;2023-07-13T11:06:48;98084.31;;;14.36;77.53
34081;BME280;20358;50.272;19.026;2023-07-13T11:10:06;98098.41;;;14.46;77.59
34081;BME280;20358;50.272;19.026;2023-07-13T11:14:01;98095.97;;;14.62;78.14
34081;BME280;20358;50.272;19.026;2023-07-13T11:17:48;98087.44;;;14.68;76.45
34081;BME280;20358;50.272;19.026;2023-07-13T11:21:25;98098.28;;;14.74;76.69
34081;BME280;20358;50.272;19.026;2023-07-13T11:24:58;98098.44;;;14.83;76.00
34081;BME280;20358;50.272;19.026;2023-07-13T11:28:17;98086.38;;;14.88;76.06
34081;BME280;20358;50.272;19.026;2023-07-13T11:31:36;98091.13;;;14.94;75.10
34081;BME280;20358;50.272;19.026;2023-07-13T11:34:49;98097.50;;;15.01;75.04
34081;BME280;20358;50.272;19.026;2023-07-13T11:37:57;98098.13;;;15.13;75.39
34081;BME280;20358;50.272;19.026;2023-07-13T11:41:10;98099.34;;;15.18;74.92
34081;BME280;20358;50.272;19.026;2023-07-13T11:44:24;98085.47;;;15.24;75.27
34081;BME280;20358;50.272;19.026;2023-07-13T11:47:40;98083.56;;;15.34;74.35
34081;BME280;20358;50.272;19.026;2023-07-13T11:50:57;98083.09;;;15.21;76.02
34081;BME280;20358;50.272;19.026;2023-07-13T11:54:23;98086.44;;;15.23;76.16
34081;BME280;20358;50.272;19.026;2023-07-13T11:57:38;98095.81;;;15.45;75.35
34081;BME280;20358;50.272;19.026;2023-07-13T12:00:57;98104.50;;;15.65;74.55
34081;BME280;20358;50.272;19.026;2023-07-13T12:04:21;98102.69;;;15.83;74.88
34081;BME280;20358;50.272;19.026;2023-07-13T12:07:33;98102.16;;;15.97;72.97
34081;BME280;20358;50.272;19.026;2023-07-13T12:10:42;98107.97;;;16.18;72.03
34081;BME280;20358;50.272;19.026;2023-07-13T12:13:51;98102.63;;;16.36;72.79
34081;BME280;20358;50.272;19.026;2023-07-13T12:16:59;98107.22;;;16.51;71.59
34081;BME280;20358;50.272;19.026;2023-07-13T12:20:26;98115.38;;;16.76;71.37
34081;BME280;20358;50.272;19.026;2023-07-13T12:23:37;98111.75;;;16.93;70.37
34081;BME280;20358;50.272;19.026;2023-07-13T12:26:51;98113.72;;;17.17;71.57
34081;BME280;20358;50.272;19.026;2023-07-13T12:30:03;98115.63;;;17.40;68.63
34081;BME280;20358;50.272;19.026;2023-07-13T12:33:28;98114.81;;;17.48;66.04
34081;BME280;20358;50.272;19.026;2023-07-13T12:36:46;98111.31;;;17.55;67.38
34081;BME280;20358;50.272;19.026;2023-07-13T12:39:56;98114.03;;;17.71;67.64
34081;BME280;20358;50.272;19.026;2023-07-13T12:43:04;98119.84;;;17.75;65.82
34081;BME280;20358;50.272;19.026;2023-07-13T12:46:18;98124.25;;;17.84;66.66
34081;BME280;20358;50.272;19.026;2023-07-13T12:49:29;98123.75;;;17.89;65.62
34081;BME280;20358;50.272;19.026;2023-07-13T12:52:44;98122.19;;;17.70;66.12
34081;BME280;20358;50.272;19.026;2023-07-13T12:56:02;98122.50;;;17.67;65.75
34081;BME280;20358;50.272;19.026;2023-07-13T12:59:18;98128.03;;;17.65;64.92
34081;BME280;20358;50.272;19.026;2023-07-13T13:02:33;98131.38;;;17.75;67.33
34081;BME280;20358;50.272;19.026;2023-07-13T13:05:42;98122.09;;;17.80;67.00
34081;BME280;20358;50.272;19.026;2023-07-13T13:08:54;98136.25;;;17.88;65.38
34081;BME280;20358;50.272;19.026;2023-07-13T13:12:04;98131.44;;;18.08;66.58
34081;BME280;20358;50.272;19.026;2023-07-13T13:15:23;98139.44;;;18.32;63.55
34081;BME280;20358;50.272;19.026;2023-07-13T13:18:34;98141.13;;;18.25;64.15
34081;BME280;20358;50.272;19.026;2023-07-13T13:21:45;98156.81;;;18.36;62.50
34081;BME280;20358;50.272;19.026;2023-07-13T13:24:57;98153.13;;;18.45;62.90
34081;BME280;20358;50.272;19.026;2023-07-13T13:28:14;98149.47;;;18.38;63.38
34081;BME280;20358;50.272;19.026;2023-07-13T13:31:23;98154.47;;;18.41;62.60
34081;BME280;20358;50.272;19.026;2023-07-13T13:34:31;98145.78;;;18.55;63.30
34081;BME280;20358;50.272;19.026;2023-07-13T13:37:40;98141.28;;;18.56;63.01
34081;BME280;20358;50.272;19.026;2023-07-13T13:40:51;98144.47;;;18.51;62.70
34081;BME280;20358;50.272;19.026;2023-07-13T13:43:59;98155.47;;;18.64;61.13
34081;BME280;20358;50.272;19.026;2023-07-13T13:47:25;98149.47;;;18.54;61.33
34081;BME280;20358;50.272;19.026;2023-07-13T13:50:40;98158.16;;;18.48;60.88
34081;BME280;20358;50.272;19.026;2023-07-13T13:53:49;98148.16;;;18.34;60.07
34081;BME280;20358;50.272;19.026;2023-07-13T13:57:00;98147.44;;;18.40;60.10
34081;BME280;20358;50.272;19.026;2023-07-13T14:00:12;98161.16;;;18.45;61.26
34081;BME280;20358;50.272;19.026;2023-07-13T14:03:22;98162.84;;;18.30;59.65
34081;BME280;20358;50.272;19.026;2023-07-13T14:06:29;98161.84;;;18.31;61.27
34081;BME280;20358;50.272;19.026;2023-07-13T14:09:37;98157.34;;;18.31;60.67
34081;BME280;20358;50.272;19.026;2023-07-13T14:12:50;98158.84;;;18.50;61.58
34081;BME280;20358;50.272;19.026;2023-07-13T14:16:00;98174.19;;;18.40;60.80
34081;BME280;20358;50.272;19.026;2023-07-13T14:19:14;98180.88;;;18.28;61.68
34081;BME280;20358;50.272;19.026;2023-07-13T14:22:24;98178.53;;;18.33;60.24
34081;BME280;20358;50.272;19.026;2023-07-13T14:25:32;98164.84;;;18.44;60.82
34081;BME280;20358;50.272;19.026;2023-07-13T14:28:47;98157.00;;;18.51;59.67
34081;BME280;20358;50.272;19.026;2023-07-13T14:31:59;98157.50;;;18.62;59.26
34081;BME280;20358;50.272;19.026;2023-07-13T14:35:10;98167.88;;;18.65;59.46
34081;BME280;20358;50.272;19.026;2023-07-13T14:38:20;98169.03;;;18.55;60.91
34081;BME280;20358;50.272;19.026;2023-07-13T14:41:29;98164.84;;;18.44;61.20
34081;BME280;20358;50.272;19.026;2023-07-13T14:44:40;98152.47;;;18.35;61.61
34081;BME280;20358;50.272;19.026;2023-07-13T14:47:51;98133.09;;;18.41;61.39
34081;BME280;20358;50.272;19.026;2023-07-13T14:50:59;98144.13;;;18.54;60.76
34081;BME280;20358;50.272;19.026;2023-07-13T14:54:09;98151.84;;;18.49;59.72
34081;BME280;20358;50.272;19.026;2023-07-13T14:57:18;98147.13;;;18.59;58.28
34081;BME280;20358;50.272;19.026;2023-07-13T15:00:30;98147.47;;;18.56;59.57
34081;BME280;20358;50.272;19.026;2023-07-13T15:03:44;98174.53;;;18.61;59.46
34081;BME280;20358;50.272;19.026;2023-07-13T15:06:57;98172.88;;;18.36;59.43
34081;BME280;20358;50.272;19.026;2023-07-13T15:10:17;98176.72;;;18.33;59.50
34081;BME280;20358;50.272;19.026;2023-07-13T15:13:28;98175.50;;;18.84;58.18
34081;BME280;20358;50.272;19.026;2023-07-13T15:16:49;98166.28;;;19.42;55.41
34081;BME280;20358;50.272;19.026;2023-07-13T15:20:12;98147.00;;;20.08;54.76
34081;BME280;20358;50.272;19.026;2023-07-13T15:23:28;98150.00;;;20.28;53.51
34081;BME280;20358;50.272;19.026;2023-07-13T15:26:37;98147.25;;;20.88;52.78
34081;BME280;20358;50.272;19.026;2023-07-13T15:29:47;98140.91;;;21.54;50.44
34081;BME280;20358;50.272;19.026;2023-07-13T15:33:15;98140.69;;;21.70;47.67
34081;BME280;20358;50.272;19.026;2023-07-13T15:36:26;98148.19;;;21.38;48.08
34081;BME280;20358;50.272;19.026;2023-07-13T15:39:38;98154.56;;;21.08;49.17
34081;BME280;20358;50.272;19.026;2023-07-13T15:42:45;98152.53;;;20.96;50.00
34081;BME280;20358;50.272;19.026;2023-07-13T15:45:55;98150.69;;;21.25;49.94
34081;BME280;20358;50.272;19.026;2023-07-13T15:49:11;98157.00;;;21.83;49.93
34081;BME280;20358;50.272;19.026;2023-07-13T15:52:22;98164.31;;;22.31;47.66
34081;BME280;20358;50.272;19.026;2023-07-13T15:55:33;98173.03;;;22.54;48.49
34081;BME280;20358;50.272;19.026;2023-07-13T15:58:44;98180.66;;;22.79;47.66
34081;BME280;20358;50.272;19.026;2023-07-13T16:01:52;98172.47;;;22.66;47.32
34081;BME280;20358;50.272;19.026;2023-07-13T16:05:04;98173.09;;;22.68;47.58
34081;BME280;20358;50.272;19.026;2023-07-13T16:08:22;98165.19;;;22.59;47.31
34081;BME280;20358;50.272;19.026;2023-07-13T16:11:35;98159.69;;;23.02;47.53
34081;BME280;20358;50.272;19.026;2023-07-13T16:14:43;98153.84;;;22.92;46.09
34081;BME280;20358;50.272;19.026;2023-07-13T16:17:52;98160.16;;;23.12;46.85
34081;BME280;20358;50.272;19.026;2023-07-13T16:21:02;98168.53;;;23.64;44.78
34081;BME280;20358;50.272;19.026;2023-07-13T16:24:16;98178.09;;;23.26;44.90
34081;BME280;20358;50.272;19.026;2023-07-13T16:27:26;98180.50;;;22.87;45.97
34081;BME280;20358;50.272;19.026;2023-07-13T16:30:35;98168.78;;;22.45;46.90
34081;BME280;20358;50.272;19.026;2023-07-13T16:33:43;98170.38;;;22.19;47.27
34081;BME280;20358;50.272;19.026;2023-07-13T16:36:55;98152.91;;;21.87;48.33
34081;BME280;20358;50.272;19.026;2023-07-13T16:40:19;98164.72;;;21.57;48.68
34081;BME280;20358;50.272;19.026;2023-07-13T16:43:29;98170.19;;;21.63;48.41
34081;BME280;20358;50.272;19.026;2023-07-13T16:46:36;98174.28;;;21.74;48.48